Skip to Main Content
SEARCH:
Location Air RH Dwp Precip Type Wind Speed Wind Gust Direction Pavement Temperature Date/Time
Hatem Bridge US 40 E/B 40 45 20 None 7 mph 12 mph NW 45 - 45 12/11/2017 11:44:00 AM
I-270 at I-370 44 46 25 None Calm 4 mph W 48 - 56 12/11/2017 11:40:00 AM
I-270 at MD-109 44 47 25 None 5 mph 10 mph W 49 - 54 12/11/2017 11:40:00 AM
I-495 at American Legion Bridge 44 45 25 None 5 mph 13 mph W 55 - 56 12/11/2017 11:40:00 AM
I-68 at MD-219 30 70 21 None 6 mph 15 mph W 39 - 42 12/11/2017 11:40:00 AM
I-68 at Savage Mt 33 60 21 None 5 mph 12 mph NW 44 - 44 12/11/2017 11:40:00 AM
I-68 at Sideling Hill 39 50 23 None 6 mph 11 mph S 52 - 53 12/11/2017 11:40:00 AM
I-68 at WV Line 35 55 20 None 7 mph 14 mph SE 42 - 44 12/11/2017 11:40:00 AM
I-695 at I-83 42 48 23 None Calm 9 mph N 46 - 50 12/11/2017 11:40:00 AM
I-70 at Fred-Wash Co. 37 56 24 None Calm 4 mph SW 46 - 52 12/11/2017 11:40:00 AM
I-70 at I-695 41 49 24 None 7 mph 16 mph W 49 - 53 12/11/2017 11:40:00 AM
I-70 at I-81 42 44 22 None 6 mph 12 mph SW - 12/11/2017 11:40:00 AM
I-70 at MD-27 41 51 24 None 5 mph 11 mph SW 50 - 52 12/11/2017 11:40:00 AM
I-70 at MD-32 40 50 23 None 4 mph 7 mph W 50 - 55 12/11/2017 11:40:00 AM
I-83 at MD-137 39 55 24 None Calm 6 mph SW 50 - 50 12/11/2017 11:40:00 AM
I-95 at I-695 NE 42 44 22 None 9 mph 11 mph W 50 - 58 12/11/2017 11:44:00 AM
I-95 at Patuxent River 45 44 25 None 4 mph 13 mph W 52 - 55 12/11/2017 11:40:00 AM
I-95 at Tydings Bridge 41 50 24 None 4 mph 11 mph W - 12/11/2017 11:40:00 AM
I-95/495 at I-295 50 46 31 None Calm 5 mph S 53 - 55 12/11/2017 11:40:00 AM
I-97 at MD-100 45 43 24 None 8 mph 13 mph W 50 - 53 12/11/2017 11:40:00 AM
I-97 at MD-32 44 45 25 None 6 mph 12 mph NW 49 - 55 12/11/2017 11:40:00 AM
MD 20 at MD 21 44 47 25 None 5 mph 12 mph NW 58 - 58 12/11/2017 11:40:00 AM
MD 231 at Patuxent River 42 61 29 None 5 mph 7 mph SE 53 - 54 12/11/2017 11:40:00 AM
MD 260 at Cox Rd 43 57 29 None Calm 7 mph SE 59 - 59 12/11/2017 11:40:00 AM
MD-135 at Salt Dome 32 69 23 None Calm 10 mph W 39 - 39 12/11/2017 11:40:00 AM
MD-140 at MD-97 38 53 23 None 6 mph 12 mph SW 51 - 51 12/11/2017 11:40:00 AM
MD-200 EB at Bonifant Rd 41 50 24 None Calm 6 mph NW 38 - 44 12/11/2017 11:44:00 AM
MD-200 WB at Muncaster Mill Rd 42 48 24 None 5 mph 10 mph W 50 - 53 12/11/2017 11:44:00 AM
MD-213 at Sassafras River 41 59 28 None 7 mph 13 mph W 47 - 47 12/11/2017 11:40:00 AM
MD-24 at Rock St Park 40 65 29 None Calm Calm E 44 - 44 12/11/2017 11:40:00 AM
MD-30 at PA Line 35 63 24 None 5 mph 11 mph W 44 - 44 12/11/2017 11:40:00 AM
MD-301 at MD-305 42 52 26 None 14 mph 19 mph NW 56 - 56 12/11/2017 11:40:00 AM
MD-33 at Knapps Narrows Drawbridge 41 60 29 None 5 mph 10 mph W 62 - 62 12/11/2017 11:40:00 AM
MD-344 at MD-224 43 51 27 None Calm 5 mph SW 46 - 46 12/11/2017 11:40:00 AM
MD-4 at Patuxent River 44 55 29 None - - No Data Available 49 - 55 12/11/2017 11:40:00 AM
MD-404 at Choptank River 44 53 28 None 5 mph 10 mph W 55 - 58 12/11/2017 11:40:00 AM
MD-43 at MD-150 44 44 24 Rain 10 mph 19 mph NW 54 - 59 12/11/2017 11:40:00 AM
MD-51 at Oldtown Salt Dome 41 44 21 None 5 mph 11 mph W 57 - 57 12/11/2017 11:40:00 AM
MD-64 at MD-418 38 51 22 None 9 mph 12 mph NW 53 - 55 12/11/2017 11:40:00 AM
US-1 at Baltimore / Harford Co. Line 42 48 23 None 4 mph 13 mph N 44 - 45 12/11/2017 11:40:00 AM
US-1 at Conowingo Dam 42 53 26 None 4 mph 8 mph W - 12/11/2017 11:40:00 AM
US-13 at US-113 43 57 29 None Calm 5 mph SW 61 - 63 12/11/2017 11:40:00 AM
US-13 at US-50 - - - No Data Available - - No Data Available -
US-15 at MD-140 42 45 22 None Calm 6 mph SW 48 - 55 12/11/2017 11:40:00 AM
US-301 at MD-5 46 43 25 None 4 mph 9 mph W 52 - 57 12/11/2017 11:40:00 AM
US-301 at Potomac 47 53 31 None Calm 4 mph S 56 - 56 12/11/2017 11:40:00 AM
US-301 on HWN Bridge - - - None - - No Data Available 73 - 73 12/11/2017 11:44:00 AM
US-340 at MD-180 42 47 23 None 7 mph 12 mph SW 51 - 55 12/11/2017 11:40:00 AM
US-50 at Choptank 43 66 32 None Calm Calm NW 52 - 54 12/11/2017 11:40:00 AM
US-50 at I-95 45 42 23 None 7 mph 14 mph NW 44 - 53 12/11/2017 11:40:00 AM
US-50 at MD-2 45 45 25 None 4 mph 10 mph S 43 - 47 12/11/2017 11:40:00 AM
US-50 at MD-331 42 55 27 None 6 mph 9 mph W 51 - 58 12/11/2017 11:40:00 AM
US-50 at OC Drawbridge 43 55 28 None 6 mph 11 mph NW 60 - 60 12/11/2017 11:40:00 AM
US-50 at Table Rock Rd 29 75 22 None Calm 13 mph SW 43 - 43 12/11/2017 11:40:00 AM
US-50 Kent Narrow Bridge 45 49 27 None 4 mph 10 mph SW 53 - 57 12/11/2017 11:40:00 AM
WPL Pier 31 42 57 28 None Calm Calm N 53 - 53 12/11/2017 11:44:00 AM
Location Air RH Dwp Precip Type Wind Speed Wind Gust Direction Pavement Temperature Date/Time